Time;durP1;ratioP1;P1;durP2;ratioP2;P2;SDS_P1;SDS_P2;PMS_P1;PMS_P2;Temp;Humidity;BMP_temperature;BMP_pressure;BME280_temperature;BME280_humidity;BME280_pressure;Samples;Min_cycle;Max_cycle;Signal;HPM_P1;HPM_P2
2023/06/14 00:00:11;;;;;;;4.40;3.10;;;;;;;20.33;66.65;100291.19;5071949;28;20028;-81
2023/06/14 00:02:38;;;;;;;6.43;3.20;;;;;;;20.47;66.40;100303.06;5071738;28;20116;-82
2023/06/14 00:05:05;;;;;;;6.07;2.47;;;;;;;20.42;66.25;100289.16;5070218;28;20111;-82
2023/06/14 00:07:42;;;;;;;5.38;2.65;;;;;;;20.34;66.15;100276.47;5071741;28;20039;-85
2023/06/14 00:10:08;;;;;;;5.60;2.53;;;;;;;20.40;66.26;100280.28;5071620;28;20099;-81
2023/06/14 00:12:34;;;;;;;9.73;2.92;;;;;;;20.38;66.51;100272.31;5071529;28;20123;-83
2023/06/14 00:15:01;;;;;;;5.60;2.58;;;;;;;20.52;66.28;100298.69;5071476;28;20476;-83
2023/06/14 00:17:30;;;;;;;4.13;2.25;;;;;;;20.51;66.37;100293.44;5071908;28;20032;-81
2023/06/14 00:19:56;;;;;;;3.50;2.30;;;;;;;20.50;66.12;100291.72;5071772;28;20059;-82
2023/06/14 00:22:24;;;;;;;5.30;3.15;;;;;;;20.35;66.50;100278.16;5071656;28;20055;-83
2023/06/14 00:24:53;;;;;;;9.35;3.58;;;;;;;20.45;66.25;100300.53;5072706;28;20454;-82
2023/06/14 00:27:18;;;;;;;5.10;3.33;;;;;;;20.38;66.73;100290.56;5075141;28;20089;-82
2023/06/14 00:29:44;;;;;;;5.38;2.95;;;;;;;20.35;66.56;100288.22;5077992;28;20028;-86
2023/06/14 00:32:09;;;;;;;3.22;2.88;;;;;;;20.25;66.63;100277.59;5089333;28;20025;-82
2023/06/14 00:34:35;;;;;;;3.40;2.60;;;;;;;20.29;67.12;100287.13;5079717;28;20042;-85
2023/06/14 00:37:01;;;;;;;5.22;3.08;;;;;;;20.18;66.84;100287.63;5088250;28;20074;-82
2023/06/14 00:39:26;;;;;;;5.90;3.10;;;;;;;20.14;66.99;100289.06;5071965;28;20079;-82
2023/06/14 00:41:52;;;;;;;7.93;3.15;;;;;;;20.22;67.24;100305.31;5071709;28;20440;-83
2023/06/14 00:44:17;;;;;;;11.02;2.95;;;;;;;20.12;67.44;100293.03;5070906;28;20484;-82
2023/06/14 00:46:45;;;;;;;6.35;3.45;;;;;;;20.19;67.63;100308.41;5071859;28;20029;-82
2023/06/14 00:49:15;;;;;;;5.47;3.22;;;;;;;20.22;67.47;100310.75;5072318;28;20028;-81
2023/06/14 00:51:41;;;;;;;8.30;3.00;;;;;;;20.14;67.61;100290.94;5071868;28;20483;-82
2023/06/14 00:54:06;;;;;;;8.75;3.40;;;;;;;20.21;67.63;100309.09;5083123;28;20626;-85
2023/06/14 00:56:32;;;;;;;8.57;3.17;;;;;;;20.26;67.47;100316.72;5080802;28;20024;-82
2023/06/14 00:58:58;;;;;;;5.65;3.17;;;;;;;20.25;66.98;100302.19;5072185;28;20020;-84
2023/06/14 01:01:24;;;;;;;5.13;2.60;;;;;;;20.31;66.97;100297.84;5071818;28;20587;-83
2023/06/14 01:03:50;;;;;;;4.28;2.65;;;;;;;20.31;66.84;100314.25;5071095;28;20054;-81
2023/06/14 01:06:41;;;;;;;7.78;2.97;;;;;;;20.32;66.94;100318.66;5069873;28;20412;-81
2023/06/14 01:09:18;;;;;;;6.10;3.60;;;;;;;20.19;67.13;100311.16;5071217;28;20028;-83
2023/06/14 01:12:07;;;;;;;3.42;3.00;;;;;;;20.14;67.07;100302.72;5071252;28;20028;-83
2023/06/14 01:14:34;;;;;;;15.65;4.38;;;;;;;20.16;67.33;100311.53;5071248;28;20028;-82
2023/06/14 01:17:02;;;;;;;9.15;3.30;;;;;;;20.14;67.59;100297.25;5069657;28;20542;-84
2023/06/14 01:19:28;;;;;;;6.97;3.05;;;;;;;20.10;67.56;100306.84;5071199;28;20033;-82
2023/06/14 01:21:55;;;;;;;7.20;3.47;;;;;;;20.05;67.73;100299.28;5071396;28;20029;-82
2023/06/14 01:24:25;;;;;;;11.60;3.67;;;;;;;19.97;67.57;100285.72;5072869;28;20035;-81
2023/06/14 01:26:55;;;;;;;8.57;3.10;;;;;;;20.06;67.85;100300.94;5072177;28;20060;-83
2023/06/14 01:29:22;;;;;;;5.97;3.63;;;;;;;20.11;67.59;100305.84;5074917;28;20034;-81
2023/06/14 01:31:48;;;;;;;14.90;4.38;;;;;;;20.04;67.88;100302.19;5077545;28;20072;-81
2023/06/14 01:34:14;;;;;;;6.47;3.42;;;;;;;20.01;67.91;100294.38;5073880;28;20024;-82
2023/06/14 01:36:43;;;;;;;5.22;3.22;;;;;;;20.01;67.93;100294.38;5071446;28;20050;-83
2023/06/14 01:39:12;;;;;;;11.43;3.15;;;;;;;19.88;67.85;100280.56;5071021;28;20048;-81
2023/06/14 01:41:39;;;;;;;10.88;3.83;;;;;;;19.89;68.40;100293.19;5071014;28;20063;-82
2023/06/14 01:44:05;;;;;;;6.53;3.50;;;;;;;19.91;68.06;100291.09;5070440;28;20538;-84
2023/06/14 01:46:31;;;;;;;5.50;3.08;;;;;;;19.97;68.02;100302.09;5068694;28;20025;-82
2023/06/14 01:48:56;;;;;;;10.13;3.78;;;;;;;19.86;68.30;100288.97;5070535;28;20032;-83
2023/06/14 01:51:22;;;;;;;7.75;3.95;;;;;;;19.78;68.46;100278.19;5070433;28;20020;-81
2023/06/14 01:53:48;;;;;;;9.60;3.63;;;;;;;19.91;68.42;100308.34;5070426;28;20120;-82
2023/06/14 01:56:13;;;;;;;8.05;3.70;;;;;;;19.90;68.60;100303.09;5069780;28;20492;-81
2023/06/14 01:58:40;;;;;;;13.30;4.13;;;;;;;19.85;68.49;100291.88;5070514;28;20033;-82
2023/06/14 02:01:06;;;;;;;6.75;4.32;;;;;;;19.85;68.70;100297.34;5070393;28;20017;-82
2023/06/14 02:03:32;;;;;;;9.70;3.53;;;;;;;19.81;68.74;100293.31;5070805;28;20663;-82
2023/06/14 02:05:58;;;;;;;8.07;3.50;;;;;;;19.73;68.90;100285.22;5069804;28;20147;-82
2023/06/14 02:08:23;;;;;;;13.15;4.38;;;;;;;19.76;68.85;100298.50;5070299;28;20027;-82
2023/06/14 02:10:49;;;;;;;11.43;5.13;;;;;;;19.71;68.85;100284.59;5069909;28;20024;-82
2023/06/14 02:13:14;;;;;;;12.00;5.20;;;;;;;19.73;68.76;100293.41;5070186;28;20024;-82
2023/06/14 02:15:43;;;;;;;17.23;5.15;;;;;;;19.74;68.86;100295.13;5072789;28;20021;-92
2023/06/14 02:18:09;;;;;;;7.55;3.80;;;;;;;19.80;68.80;100308.84;5073210;28;20060;-90
2023/06/14 02:20:35;;;;;;;11.27;4.22;;;;;;;19.77;68.89;100305.66;5075293;28;20032;-85
2023/06/14 02:23:01;;;;;;;11.90;3.90;;;;;;;19.70;68.83;100291.91;5072295;28;20039;-84
2023/06/14 02:25:27;;;;;;;10.38;4.15;;;;;;;19.69;69.16;100301.16;5082246;28;20012;-95
2023/06/14 02:27:54;;;;;;;10.45;3.97;;;;;;;19.78;68.92;100299.16;5084984;28;20035;-83
2023/06/14 02:30:20;;;;;;;7.38;4.55;;;;;;;19.80;68.88;100313.44;5085631;28;20496;-86
2023/06/14 02:32:46;;;;;;;10.82;4.70;;;;;;;19.75;68.84;100311.31;5070836;28;20031;-90
2023/06/14 02:35:13;;;;;;;13.25;4.47;;;;;;;19.74;68.74;100317.81;5092457;28;20055;-81
2023/06/14 02:37:38;;;;;;;10.18;5.00;;;;;;;19.71;69.00;100306.41;5090441;28;20489;-85
2023/06/14 02:40:06;;;;;;;19.70;5.40;;;;;;;19.80;69.02;100313.44;5089840;28;20024;-81
2023/06/14 02:42:31;;;;;;;12.20;5.65;;;;;;;19.71;69.14;100314.59;5086987;28;20103;-81
2023/06/14 02:44:56;;;;;;;15.18;4.95;;;;;;;19.75;69.12;100324.09;5088612;28;20111;-80
2023/06/14 02:47:22;;;;;;;12.15;4.78;;;;;;;19.80;69.02;100317.03;5088678;28;20036;-82
2023/06/14 02:49:47;;;;;;;7.65;5.18;;;;;;;19.77;69.11;100327.47;5088005;28;20032;-83
2023/06/14 02:52:13;;;;;;;16.70;5.18;;;;;;;19.69;69.22;100313.97;5090278;28;20065;-83
2023/06/14 02:54:38;;;;;;;8.93;4.57;;;;;;;19.74;69.08;100316.94;5089451;28;20499;-79
2023/06/14 02:57:06;;;;;;;14.48;4.57;;;;;;;19.79;69.34;100328.13;5097545;28;20017;-85
2023/06/14 02:59:32;;;;;;;13.65;5.90;;;;;;;19.68;69.09;100328.63;5098939;28;20039;-84
2023/06/14 03:01:58;;;;;;;10.57;5.00;;;;;;;19.70;69.22;100323.81;5088309;28;20036;-81
2023/06/14 03:04:25;;;;;;;10.07;4.80;;;;;;;19.53;69.32;100310.41;5089897;28;20028;-83
2023/06/14 03:06:54;;;;;;;8.30;5.50;;;;;;;19.63;69.67;100331.09;5089613;28;20036;-82
2023/06/14 03:09:20;;;;;;;8.52;5.50;;;;;;;19.68;69.52;100334.94;5093341;28;20024;-90
2023/06/14 03:11:45;;;;;;;5.93;4.75;;;;;;;19.62;69.93;100332.97;5099780;28;20040;-87
2023/06/14 03:14:13;;;;;;;18.73;10.38;;;;;;;19.60;69.77;100320.56;5085208;28;20040;-89
2023/06/14 03:16:41;;;;;;;20.90;7.18;;;;;;;19.53;70.04;100320.47;5096214;28;20062;-89
2023/06/14 03:19:06;;;;;;;12.27;6.35;;;;;;;19.54;69.80;100317.53;5115406;28;20030;-89
2023/06/14 03:21:32;;;;;;;31.15;7.40;;;;;;;19.64;69.90;100332.75;5119699;28;20102;-90
2023/06/14 03:23:57;;;;;;;13.77;5.85;;;;;;;19.52;69.71;100316.88;5111479;28;20035;-86
2023/06/14 03:26:23;;;;;;;16.98;7.32;;;;;;;19.67;69.84;100348.75;5110717;28;20056;-84
2023/06/14 03:28:49;;;;;;;16.00;7.18;;;;;;;19.60;69.94;100320.56;5094950;28;20101;-87
2023/06/14 03:31:16;;;;;;;15.27;6.82;;;;;;;19.70;70.05;100346.50;5094269;28;20028;-89
2023/06/14 03:33:41;;;;;;;36.63;7.30;;;;;;;19.58;69.73;100311.69;5093693;28;20110;-85
2023/06/14 03:36:07;;;;;;;15.02;6.30;;;;;;;19.64;69.94;100330.03;5094949;28;20498;-87
2023/06/14 03:38:33;;;;;;;16.10;7.28;;;;;;;19.75;69.94;100343.22;5095670;28;20070;-85
2023/06/14 03:40:59;;;;;;;22.77;7.20;;;;;;;19.73;69.88;100343.38;5111994;28;20016;-88
2023/06/14 03:43:25;;;;;;;25.77;8.23;;;;;;;19.73;69.49;100326.16;5097479;28;20079;-88
2023/06/14 03:45:50;;;;;;;12.60;6.38;;;;;;;19.76;69.23;100318.44;5097224;28;20021;-90
2023/06/14 03:48:16;;;;;;;12.85;6.85;;;;;;;19.88;69.30;100346.94;5096525;28;20016;-92
2023/06/14 03:50:42;;;;;;;20.35;6.68;;;;;;;19.93;69.54;100349.09;5091169;28;20032;-86
2023/06/14 03:53:08;;;;;;;18.52;7.40;;;;;;;20.02;69.11;100351.53;5078571;28;20016;-88
2023/06/14 03:55:34;;;;;;;10.65;6.30;;;;;;;19.89;69.54;100339.59;5075831;28;20021;-93
2023/06/14 03:58:00;;;;;;;21.02;8.18;;;;;;;20.04;69.13;100346.72;5032737;28;20037;-84
2023/06/14 04:00:26;;;;;;;14.30;7.00;;;;;;;20.11;68.82;100352.25;5031498;28;20755;-87
2023/06/14 04:02:52;;;;;;;14.90;6.80;;;;;;;20.05;68.63;100340.22;5033139;28;20038;-87
2023/06/14 04:05:19;;;;;;;10.63;6.90;;;;;;;20.04;68.68;100340.41;5057382;28;20550;-88
2023/06/14 04:07:45;;;;;;;30.15;9.20;;;;;;;20.17;68.35;100343.28;5033595;28;20459;-87
2023/06/14 04:10:14;;;;;;;33.30;8.80;;;;;;;20.26;68.40;100349.50;5051776;28;20029;-90
2023/06/14 04:12:39;;;;;;;15.27;6.53;;;;;;;20.32;67.96;100352.31;5053633;28;20041;-90
2023/06/14 04:15:06;;;;;;;24.85;8.07;;;;;;;20.33;67.79;100351.28;5039670;28;20128;-86
2023/06/14 04:17:35;;;;;;;16.58;7.88;;;;;;;20.39;68.01;100361.41;5054853;28;20053;-87
2023/06/14 04:20:03;;;;;;;26.63;8.93;;;;;;;20.35;67.83;100351.06;5069130;28;20100;-88
2023/06/14 04:22:30;;;;;;;19.73;8.38;;;;;;;20.35;67.70;100342.88;5073659;28;20024;-90
2023/06/14 04:24:56;;;;;;;19.42;7.78;;;;;;;20.41;67.94;100345.66;5036720;28;20039;-87
2023/06/14 04:27:25;;;;;;;15.00;7.07;;;;;;;20.60;67.50;100364.16;5049899;28;20033;-85
2023/06/14 04:29:56;;;;;;;23.05;8.18;;;;;;;20.55;67.40;100336.53;5073088;28;20036;-91
2023/06/14 04:32:25;;;;;;;22.92;8.88;;;;;;;20.66;66.91;100343.38;5080721;28;20032;-85
2023/06/14 04:34:54;;;;;;;45.08;9.07;;;;;;;20.88;66.41;100360.59;5074839;28;20044;-88
2023/06/14 04:37:21;;;;;;;19.35;7.70;;;;;;;20.94;66.48;100360.66;5072097;28;20133;-89
2023/06/14 04:39:47;;;;;;;28.50;8.48;;;;;;;21.07;65.77;100365.34;5087976;28;20075;-89
2023/06/14 04:42:14;;;;;;;16.92;7.72;;;;;;;21.01;66.07;100377.09;5083981;28;20044;-88
2023/06/14 04:44:41;;;;;;;23.88;7.93;;;;;;;21.08;65.93;100380.72;5074625;28;20035;-89
2023/06/14 04:47:07;;;;;;;18.27;8.27;;;;;;;21.12;65.81;100382.06;5071096;28;20020;-87
2023/06/14 04:49:33;;;;;;;18.67;6.68;;;;;;;21.28;65.55;100389.97;5076134;28;20029;-83
2023/06/14 04:52:01;;;;;;;30.63;7.75;;;;;;;21.30;65.59;100397.97;5077298;28;20036;-85
2023/06/14 04:54:27;;;;;;;31.75;9.07;;;;;;;21.38;65.56;100403.28;5073962;28;20382;-92
2023/06/14 04:56:55;;;;;;;14.73;7.78;;;;;;;21.27;65.46;100376.50;5075641;28;20086;-91
2023/06/14 04:59:22;;;;;;;13.13;6.88;;;;;;;21.52;65.20;100408.66;5074675;28;20073;-85
2023/06/14 05:01:49;;;;;;;11.60;7.13;;;;;;;21.62;64.72;100402.81;5073034;28;20028;-87
2023/06/14 05:04:18;;;;;;;29.67;7.75;;;;;;;21.66;64.60;100399.47;5071928;28;20024;-85
2023/06/14 05:06:44;;;;;;;28.75;8.23;;;;;;;21.86;64.13;100412.44;5071922;28;20025;-84
2023/06/14 05:09:11;;;;;;;18.42;7.30;;;;;;;21.93;63.78;100397.75;5073973;28;20043;-84
2023/06/14 05:11:36;;;;;;;15.35;7.78;;;;;;;21.91;63.47;100399.00;5074563;28;20028;-85
2023/06/14 05:14:02;;;;;;;34.85;9.00;;;;;;;21.96;63.41;100389.13;5070898;28;20047;-85
2023/06/14 05:16:29;;;;;;;107.88;18.55;;;;;;;21.91;63.43;100385.31;5086948;28;20091;-85
2023/06/14 05:18:55;;;;;;;21.50;7.38;;;;;;;22.14;63.25;100407.72;5088517;28;20115;-82
2023/06/14 05:21:20;;;;;;;26.92;8.07;;;;;;;22.17;62.94;100390.88;5075980;28;20130;-88
2023/06/14 05:23:46;;;;;;;19.27;7.75;;;;;;;22.19;62.81;100386.06;5079099;28;20482;-85
2023/06/14 05:26:11;;;;;;;21.83;7.25;;;;;;;22.32;62.61;100397.06;5069060;28;20585;-87
2023/06/14 05:28:37;;;;;;;22.02;8.35;;;;;;;22.48;62.62;100415.00;5051988;28;20508;-86
2023/06/14 05:31:02;;;;;;;34.38;9.80;;;;;;;22.50;62.31;100408.28;5067514;28;20035;-84
2023/06/14 05:33:28;;;;;;;26.50;8.15;;;;;;;22.51;62.36;100409.94;5066904;28;20078;-84
2023/06/14 05:35:53;;;;;;;10.10;6.50;;;;;;;22.43;62.75;100401.06;5066944;28;20029;-86
2023/06/14 05:38:20;;;;;;;24.38;7.82;;;;;;;22.60;62.39;100425.16;5067287;28;20056;-85
2023/06/14 05:40:45;;;;;;;17.17;7.32;;;;;;;22.58;62.75;100416.31;5069185;28;20174;-83
2023/06/14 05:43:11;;;;;;;20.65;8.20;;;;;;;22.70;62.78;100430.28;5069414;28;20508;-83
2023/06/14 05:45:36;;;;;;;17.52;6.75;;;;;;;22.80;62.45;100421.63;5079179;28;20055;-88
2023/06/14 05:48:02;;;;;;;49.47;10.05;;;;;;;22.84;62.29;100410.06;5081688;28;20037;-86
2023/06/14 05:50:27;;;;;;;35.10;10.55;;;;;;;23.09;61.97;100429.47;5090875;28;20092;-83
2023/06/14 05:52:53;;;;;;;26.08;6.82;;;;;;;23.09;61.60;100430.31;5092254;28;20115;-79
2023/06/14 05:55:19;;;;;;;12.13;6.57;;;;;;;23.19;61.33;100436.22;5101451;28;20023;-83
2023/06/14 05:57:45;;;;;;;46.03;9.90;;;;;;;23.29;61.12;100441.28;5090125;28;20024;-85
2023/06/14 06:00:14;;;;;;;16.10;6.00;;;;;;;23.27;61.09;100427.78;5091097;28;20031;-85
2023/06/14 06:02:40;;;;;;;17.40;6.50;;;;;;;23.38;61.03;100422.69;5091574;28;20028;-84
2023/06/14 06:05:06;;;;;;;12.30;6.10;;;;;;;23.49;60.27;100436.66;5091793;28;20016;-90
2023/06/14 06:07:31;;;;;;;13.23;6.43;;;;;;;23.60;60.03;100444.25;5094973;28;20373;-84
2023/06/14 06:09:57;;;;;;;36.05;9.00;;;;;;;23.62;59.35;100435.78;5094644;28;20032;-90
2023/06/14 06:12:22;;;;;;;30.30;7.22;;;;;;;23.55;58.98;100430.31;5101976;28;20031;-87
2023/06/14 06:14:47;;;;;;;14.13;5.15;;;;;;;23.48;58.79;100412.19;5100507;28;20063;-85
2023/06/14 06:17:13;;;;;;;6.78;4.43;;;;;;;23.59;58.78;100445.31;5096092;28;20454;-83
2023/06/14 06:19:40;;;;;;;14.23;4.88;;;;;;;23.45;57.92;100435.41;5090504;28;20064;-80
2023/06/14 06:22:06;;;;;;;7.63;4.57;;;;;;;23.34;58.17;100452.47;5091766;28;20020;-89
2023/06/14 06:24:32;;;;;;;9.23;5.05;;;;;;;23.14;58.42;100433.28;5090804;28;20106;-84
2023/06/14 06:26:57;;;;;;;14.57;4.55;;;;;;;23.27;58.32;100440.69;5089819;28;20108;-89
2023/06/14 06:29:23;;;;;;;24.17;5.78;;;;;;;23.35;58.21;100448.69;5095216;28;20058;-92
2023/06/14 06:31:49;;;;;;;29.98;6.20;;;;;;;23.45;58.66;100438.16;5092339;28;20028;-90
2023/06/14 06:34:14;;;;;;;20.10;5.00;;;;;;;23.49;57.42;100425.66;5091865;28;20054;-85
2023/06/14 06:36:40;;;;;;;6.40;3.85;;;;;;;23.68;56.81;100435.78;5088905;28;20036;-88
2023/06/14 06:39:09;;;;;;;29.88;4.80;;;;;;;23.77;56.00;100426.25;5088856;28;20052;-81
2023/06/14 06:41:39;;;;;;;13.60;4.13;;;;;;;23.91;55.97;100439.97;5089008;28;20043;-88
2023/06/14 06:44:06;;;;;;;24.33;4.68;;;;;;;23.99;55.53;100442.47;5091575;28;20427;-88
2023/06/14 06:46:33;;;;;;;18.83;4.90;;;;;;;24.09;53.61;100445.59;5090026;28;20035;-84
2023/06/14 06:48:58;;;;;;;7.53;3.28;;;;;;;24.09;53.25;100427.22;5091343;28;20032;-86
2023/06/14 06:51:24;;;;;;;15.10;3.70;;;;;;;24.23;52.88;100439.88;5094118;28;20028;-89
2023/06/14 06:53:53;;;;;;;11.32;3.65;;;;;;;24.29;52.21;100438.16;5089155;28;20146;-83
2023/06/14 06:56:19;;;;;;;14.93;3.35;;;;;;;24.29;52.17;100432.66;5092608;28;20030;-87
2023/06/14 06:58:45;;;;;;;26.08;4.75;;;;;;;24.38;52.16;100442.31;5090062;28;20476;-85
2023/06/14 07:01:11;;;;;;;15.27;4.38;;;;;;;24.48;52.52;100442.72;5089563;28;20028;-87
2023/06/14 07:03:37;;;;;;;5.40;3.67;;;;;;;24.60;51.67;100443.69;5093416;28;20024;-81
2023/06/14 07:06:02;;;;;;;12.38;4.07;;;;;;;24.69;52.25;100439.63;5089813;28;20043;-82
2023/06/14 07:08:28;;;;;;;13.98;4.80;;;;;;;24.74;51.29;100431.53;5094341;28;20024;-83
2023/06/14 07:10:54;;;;;;;29.85;6.43;;;;;;;24.87;50.41;100434.25;5104116;28;20024;-88
2023/06/14 07:13:20;;;;;;;9.35;4.05;;;;;;;24.85;49.92;100422.63;5103304;28;20020;-86
2023/06/14 07:15:45;;;;;;;12.70;5.38;;;;;;;24.89;50.30;100431.28;5089585;28;20024;-85
2023/06/14 07:18:11;;;;;;;48.95;16.55;;;;;;;24.95;50.09;100437.78;5089403;28;20028;-82
2023/06/14 07:20:38;;;;;;;12.23;4.50;;;;;;;25.01;49.99;100425.91;5088428;28;20024;-79
2023/06/14 07:23:03;;;;;;;22.33;8.00;;;;;;;25.20;49.65;100442.22;5088384;28;20105;-84
2023/06/14 07:25:29;;;;;;;20.33;7.97;;;;;;;25.23;49.67;100425.25;5089131;28;20031;-86
2023/06/14 07:27:54;;;;;;;23.23;6.88;;;;;;;25.40;49.57;100425.56;5091678;28;20020;-84
2023/06/14 07:30:20;;;;;;;13.90;3.80;;;;;;;25.55;49.06;100439.00;5087088;28;20028;-82
2023/06/14 07:32:46;;;;;;;14.40;5.95;;;;;;;25.55;48.82;100426.06;5087848;28;20028;-83
2023/06/14 07:35:12;;;;;;;28.05;7.18;;;;;;;25.68;49.00;100449.91;5088162;28;20032;-82
2023/06/14 07:37:37;;;;;;;17.00;6.22;;;;;;;25.60;48.55;100437.25;5087711;28;20056;-81
2023/06/14 07:40:06;;;;;;;11.75;4.97;;;;;;;25.64;48.01;100430.22;5088000;28;20078;-82
2023/06/14 07:42:33;;;;;;;6.35;3.38;;;;;;;25.57;47.96;100415.66;5074172;28;20033;-84
2023/06/14 07:44:59;;;;;;;13.57;4.03;;;;;;;25.64;48.08;100415.59;5068549;28;20086;-82
2023/06/14 07:47:25;;;;;;;15.25;4.80;;;;;;;25.68;47.95;100428.69;5068941;28;20032;-84
2023/06/14 07:49:50;;;;;;;8.80;4.10;;;;;;;25.73;47.91;100420.59;5074674;28;20112;-83
2023/06/14 07:52:16;;;;;;;5.07;3.13;;;;;;;25.93;47.52;100431.41;5072643;28;20029;-85
2023/06/14 07:54:41;;;;;;;8.40;4.07;;;;;;;26.03;46.96;100430.84;5071329;28;20025;-84
2023/06/14 07:57:07;;;;;;;52.85;27.90;;;;;;;26.09;47.28;100427.16;5072393;28;20668;-82
2023/06/14 07:59:33;;;;;;;6.35;4.43;;;;;;;26.22;47.12;100429.78;5073604;28;21117;-84
2023/06/14 08:01:58;;;;;;;7.97;3.30;;;;;;;26.13;47.17;100426.47;5073144;28;20020;-84
2023/06/14 08:04:25;;;;;;;25.90;9.77;;;;;;;26.14;47.41;100439.19;5074417;28;20028;-83
2023/06/14 08:06:50;;;;;;;25.00;7.15;;;;;;;26.17;47.24;100435.16;5083508;28;20036;-83
2023/06/14 08:09:16;;;;;;;15.90;5.20;;;;;;;26.20;47.69;100441.06;5081462;28;20060;-81
2023/06/14 08:11:41;;;;;;;18.98;4.32;;;;;;;26.15;47.08;100440.91;5073348;28;20503;-84
2023/06/14 08:14:08;;;;;;;9.80;3.42;;;;;;;26.09;47.48;100440.94;5086518;28;20104;-82
2023/06/14 08:16:34;;;;;;;20.02;3.78;;;;;;;25.89;47.31;100436.53;5073411;28;20033;-83
2023/06/14 08:18:59;;;;;;;36.75;7.78;;;;;;;25.90;47.79;100424.41;5078003;28;20054;-84
2023/06/14 08:21:27;;;;;;;13.50;3.42;;;;;;;25.97;48.06;100422.44;5090677;28;20036;-83
2023/06/14 08:23:52;;;;;;;8.02;3.22;;;;;;;26.05;47.41;100429.56;5087143;28;20054;-83
2023/06/14 08:26:18;;;;;;;6.57;2.90;;;;;;;26.25;46.70;100452.22;5082629;28;20032;-82
2023/06/14 08:28:44;;;;;;;4.32;3.20;;;;;;;26.38;46.42;100446.56;5072941;28;20032;-82
2023/06/14 08:31:09;;;;;;;7.70;2.70;;;;;;;26.56;46.28;100448.44;5074348;28;20085;-83
2023/06/14 08:33:35;;;;;;;5.78;2.60;;;;;;;26.74;46.22;100431.81;5073987;28;20093;-82
2023/06/14 08:36:00;;;;;;;5.93;2.90;;;;;;;26.87;45.00;100442.72;5073264;28;20028;-82
2023/06/14 08:38:26;;;;;;;9.18;3.72;;;;;;;26.89;44.88;100448.81;5072957;28;20055;-81
2023/06/14 08:40:52;;;;;;;15.00;3.70;;;;;;;26.92;45.41;100451.13;5072503;28;20028;-82
2023/06/14 08:43:18;;;;;;;12.98;4.57;;;;;;;26.98;44.96;100444.66;5071867;28;20123;-82
2023/06/14 08:45:46;;;;;;;9.63;3.67;;;;;;;27.04;45.13;100451.97;5070645;28;20124;-83
2023/06/14 08:48:14;;;;;;;13.43;3.35;;;;;;;26.99;44.94;100443.59;5072082;28;20029;-83
2023/06/14 08:50:41;;;;;;;4.82;2.72;;;;;;;26.95;44.39;100436.00;5071491;28;20024;-83
2023/06/14 08:53:10;;;;;;;7.05;3.92;;;;;;;26.89;44.68;100446.06;5072044;28;20029;-83
2023/06/14 08:55:39;;;;;;;6.93;3.05;;;;;;;27.00;44.71;100441.66;5072714;28;20028;-82
2023/06/14 08:58:05;;;;;;;14.48;4.13;;;;;;;27.00;45.27;100438.91;5073161;28;20036;-82
2023/06/14 09:00:32;;;;;;;32.00;6.45;;;;;;;26.90;45.72;100436.72;5071996;28;20092;-82
2023/06/14 09:02:58;;;;;;;13.20;3.55;;;;;;;26.88;45.84;100436.09;5081709;28;20032;-82
2023/06/14 09:05:24;;;;;;;27.02;4.72;;;;;;;26.80;45.68;100428.16;5082193;28;20021;-82
2023/06/14 09:07:50;;;;;;;34.22;5.40;;;;;;;26.86;46.00;100429.13;5071908;28;20408;-83
2023/06/14 09:10:17;;;;;;;4.80;3.13;;;;;;;26.88;45.59;100416.78;5070630;28;20036;-83
2023/06/14 09:12:43;;;;;;;18.08;4.75;;;;;;;26.97;45.66;100434.66;5070239;28;20413;-81
2023/06/14 09:15:09;;;;;;;7.75;3.20;;;;;;;27.13;44.92;100426.78;5070691;28;20020;-83
2023/06/14 09:17:35;;;;;;;38.35;5.90;;;;;;;27.18;45.96;100424.16;5070735;28;20545;-82
2023/06/14 09:20:10;;;;;;;19.45;3.38;;;;;;;27.30;44.73;100405.69;5070181;28;20021;-81
2023/06/14 09:22:36;;;;;;;17.13;4.15;;;;;;;27.42;44.02;100396.34;5070152;28;20075;-84
2023/06/14 09:25:02;;;;;;;10.65;4.93;;;;;;;27.60;44.96;100400.91;5070828;28;20031;-84
2023/06/14 09:27:28;;;;;;;44.33;5.82;;;;;;;27.19;48.31;100418.38;5070477;28;20036;-82
2023/06/14 09:29:54;;;;;;;14.88;4.40;;;;;;;27.31;48.56;100407.34;5070377;28;20029;-86
2023/06/14 09:32:23;;;;;;;33.78;4.03;;;;;;;27.08;48.48;100424.75;5070426;28;20475;-81
2023/06/14 09:34:49;;;;;;;11.55;3.53;;;;;;;27.01;48.52;100416.56;5070270;28;20112;-84
2023/06/14 09:37:29;;;;;;;8.05;4.25;;;;;;;26.89;48.97;100420.38;5069852;28;20512;-82
2023/06/14 09:39:54;;;;;;;14.52;4.57;;;;;;;26.62;50.18;100425.44;5069915;28;20020;-83
2023/06/14 09:42:19;;;;;;;20.13;3.90;;;;;;;26.61;49.99;100412.69;5069650;28;20039;-82
2023/06/14 09:44:49;;;;;;;11.30;4.32;;;;;;;26.66;50.25;100403.72;5069041;28;20024;-82
2023/06/14 09:47:18;;;;;;;17.50;4.88;;;;;;;26.57;50.67;100411.50;5070452;28;20025;-82
2023/06/14 09:49:44;;;;;;;16.27;5.50;;;;;;;26.52;50.96;100414.94;5070043;28;20028;-83
2023/06/14 09:52:16;;;;;;;10.88;3.80;;;;;;;26.80;49.95;100397.81;5070601;28;20028;-83
2023/06/14 09:54:43;;;;;;;6.78;4.03;;;;;;;26.68;48.73;100405.19;5069735;28;20043;-82
2023/06/14 09:57:12;;;;;;;9.30;3.92;;;;;;;26.68;49.81;100418.97;5071196;28;20138;-82
2023/06/14 09:59:42;;;;;;;11.63;3.83;;;;;;;26.65;50.03;100410.31;5067856;28;20033;-80
2023/06/14 10:02:18;;;;;;;14.60;4.07;;;;;;;26.44;51.26;100400.66;5050656;28;20093;-79
2023/06/14 10:04:50;;;;;;;9.63;3.95;;;;;;;26.39;51.75;100397.75;5061194;28;20037;-86
2023/06/14 10:07:20;;;;;;;11.55;4.75;;;;;;;26.38;52.06;100401.59;5067545;28;20033;-86
2023/06/14 10:09:49;;;;;;;5.85;3.30;;;;;;;26.18;51.74;100388.03;5054736;28;20036;-93
2023/06/14 10:12:20;;;;;;;10.82;4.53;;;;;;;26.29;51.79;100381.75;5069529;28;20072;-85
2023/06/14 10:14:50;;;;;;;9.93;3.90;;;;;;;26.44;52.00;100407.00;5071542;28;20428;-84
2023/06/14 10:17:47;;;;;;;19.92;6.25;;;;;;;26.60;51.51;100410.19;5068969;28;20036;-84
2023/06/14 10:20:19;;;;;;;5.45;3.88;;;;;;;26.75;50.86;100413.34;5017673;28;20060;-82
2023/06/14 10:22:58;;;;;;;7.97;3.70;;;;;;;26.82;49.87;100408.59;5007365;28;20053;-84
2023/06/14 10:25:31;;;;;;;11.15;3.90;;;;;;;26.93;49.84;100397.59;5006562;28;20038;-83
2023/06/14 10:28:19;;;;;;;13.75;3.95;;;;;;;27.07;48.72;100394.59;5006526;28;20038;-83
2023/06/14 10:31:04;;;;;;;14.18;4.32;;;;;;;27.19;49.27;100415.63;5005962;28;20500;-85
2023/06/14 10:33:30;;;;;;;17.50;4.22;;;;;;;26.96;49.89;100419.22;5006157;28;20033;-84
2023/06/14 10:36:36;;;;;;;11.90;3.65;;;;;;;26.82;50.95;100423.22;5007165;28;20049;-82
2023/06/14 10:39:14;;;;;;;12.55;4.30;;;;;;;26.58;51.06;100402.13;5009684;28;20064;-83
2023/06/14 10:41:41;;;;;;;18.75;4.78;;;;;;;26.46;51.40;100409.53;5010351;28;20032;-83
2023/06/14 10:44:12;;;;;;;26.98;5.78;;;;;;;26.74;51.16;100431.81;5017726;28;20447;-82
2023/06/14 10:46:46;;;;;;;7.93;4.17;;;;;;;26.79;51.31;100429.19;5009710;28;20026;-82
2023/06/14 10:49:11;;;;;;;15.10;4.35;;;;;;;26.66;51.31;100431.31;5010708;28;20048;-80
2023/06/14 10:51:46;;;;;;;8.27;4.05;;;;;;;26.73;51.48;100416.34;5009211;28;20493;-84
2023/06/14 10:54:20;;;;;;;21.98;5.47;;;;;;;27.07;51.14;100438.78;5015236;28;20017;-88
2023/06/14 10:57:10;;;;;;;8.00;3.30;;;;;;;26.86;50.72;100413.41;5017957;28;20103;-91
2023/06/14 10:59:37;;;;;;;14.15;4.75;;;;;;;27.11;49.96;100428.94;5065114;28;20048;-86
2023/06/14 11:02:21;;;;;;;11.90;3.92;;;;;;;27.14;49.65;100436.75;5048915;28;20037;-81
2023/06/14 11:04:48;;;;;;;12.43;6.22;;;;;;;27.04;49.91;100440.09;5046710;28;20041;-84
2023/06/14 11:07:43;;;;;;;40.97;6.45;;;;;;;27.06;50.38;100442.63;5046351;28;20041;-84
2023/06/14 11:10:15;;;;;;;14.95;4.60;;;;;;;27.32;49.68;100437.50;5046231;28;20033;-86
2023/06/14 11:12:42;;;;;;;14.35;4.47;;;;;;;27.07;50.48;100439.63;5033334;28;20028;-85
2023/06/14 11:15:08;;;;;;;15.32;4.95;;;;;;;27.09;50.87;100426.44;5070782;28;20423;-92
2023/06/14 11:17:33;;;;;;;12.48;4.47;;;;;;;26.97;50.72;100423.63;5071152;28;20028;-91
2023/06/14 11:20:16;;;;;;;10.35;4.22;;;;;;;27.04;50.81;100424.38;5070386;28;20039;-92